Kinney, MN

5:10 PM CDT on July 02, 2015 (GMT -0500)
UTAC Thunderbird Mine | | Change Station
CLOSE
Current Station
Personal Weather Station
Location: Eveleth, MN
Elevation: 1621 ft
Nearby Weather Stations

Elev 1621 ft 47.48 °N, 92.54 °W | Updated 2 minutes ago

Clear
Clear
76.2 °F
Feels Like 78 °F
N
4.0
Wind Variable Wind from SSW
Gusts 9.0 mph

Today
High -- | Low -- °F
--% Chance of Precip.
Yesterday
High -- | Low -- °F
Precip. -- in
5:18 AM 9:11 PM
Full, 99% visible
Pressure 29.96 in
Visibility 10.0 miles
Clouds Few 4200 ft
Heat Index 78 °F
Dew Point 58 °F
Humidity 53%
Rainfall 0.00 in
Snow Depth Not available.
UV 5 out of 12
Pollen 4.90 out of 12
Air Quality Not available.
Flu Activity Not available.
METAR KHIB 022153Z AUTO 25006KT 10SM FEW042 24/14 A2996 RMK AO2 SLP146 T02440139

More Conditions Fewer Conditions

Pressure 29.96 in
Visibility 10.0 miles
Clouds Few 4200 ft
Heat Index 78 °F
Dew Point 58 °F
Humidity 53%
Rainfall 0.00 in
Snow Depth Not available.
UV 5 out of 12
Pollen 4.90 out of 12
Air Quality Not available.
Flu Activity Not available.
METAR KHIB 022153Z AUTO 25006KT 10SM FEW042 24/14 A2996 RMK AO2 SLP146 T02440139

More Conditions Fewer Conditions

10-Day Weather Forecast

×

Almanac

Astronomy

Jul. 02, 2015 Rise Set
Actual Time
Civil Twilight
Nautical Twilight
Astronomical Twilight
Moon
Length of Visible Light
Length of Day
Tomorrow will be .
, % of the Moon is Illuminated

Today's Extremes

State Highs State Lows

Community

WunderPhotos

Upload Photos

1,834,560 photos uploaded!

WunderBlogs® & News

Nearby

Air Quality

  Air Quality AQ Index Pollutant
Not available.

Snow Depth

Station Depth Elevation

Earthquake Activity

City Distance Mag. Time & Date
Minimum magnitude displayed is 2.5.

Coastal Water Temperatures

Place Temperature

Stations

Nearby Weather Stations

Station Location Temp. Windchill Dew Point Humidity Wind Precip. Elev Updated Type